Person County Airport


Codes: KTDF/
Name: Person County Airport
City: Roxboro
Country: United States
Elevation: 609 ft.
Wikipedia:

Photos at Person County Airport


   Photos courtesy of SpottingLog. You can add your own sightings and photos by signing up for a free trial today.



No photos found.

Weather at Person County Airport


Time (UTC)DescriptionTempratureWindCloud coverageVisibilityPressureHumidity
21-Feb-2024 03:00Clear Sky3°C4 mph, E0%10000m1027hPa77%
21-Feb-2024 06:00Few Clouds2°C4 mph, E19%10000m1028hPa80%
21-Feb-2024 09:00Clear Sky0°C4 mph, NE5%10000m1028hPa83%
21-Feb-2024 12:00Clear Sky-1°C4 mph, NE9%10000m1030hPa92%
21-Feb-2024 15:00Clear Sky6°C4 mph, NE3%10000m1030hPa63%
21-Feb-2024 18:00Clear Sky11°C2 mph, NE2%10000m1027hPa51%
21-Feb-2024 21:00Clear Sky11°C2 mph, E0%10000m1024hPa51%
22-Feb-2024 00:00Clear Sky6°C2 mph, E1%10000m1025hPa70%
22-Feb-2024 03:00Few Clouds4°C4 mph, SE15%10000m1024hPa76%
22-Feb-2024 06:00Scattered Clouds3°C7 mph, S29%10000m1023hPa79%
22-Feb-2024 09:00Overcast Clouds3°C4 mph, S98%10000m1022hPa80%
22-Feb-2024 12:00Overcast Clouds3°C7 mph, SW99%10000m1021hPa81%
22-Feb-2024 15:00Overcast Clouds9°C11 mph, SW100%10000m1017hPa62%
22-Feb-2024 18:00Overcast Clouds14°C16 mph, SW89%10000m1013hPa51%
22-Feb-2024 21:00Overcast Clouds15°C13 mph, SW89%10000m1009hPa56%
23-Feb-2024 00:00Overcast Clouds12°C13 mph, SW95%10000m1008hPa60%
23-Feb-2024 03:00Overcast Clouds11°C13 mph, SW98%10000m1006hPa67%
23-Feb-2024 06:00Broken Clouds11°C13 mph, SW60%10000m1003hPa69%
23-Feb-2024 09:00Broken Clouds10°C11 mph, SW72%10000m1001hPa78%
23-Feb-2024 12:00Light Rain10°C11 mph, SW86%10000m1001hPa92%
23-Feb-2024 15:00Light Rain13°C11 mph, NW100%10000m1001hPa83%
23-Feb-2024 18:00Broken Clouds15°C16 mph, NW74%10000m1001hPa51%
23-Feb-2024 21:00Scattered Clouds15°C11 mph, NW35%10000m1001hPa49%
24-Feb-2024 00:00Few Clouds9°C7 mph, NW20%10000m1004hPa65%
24-Feb-2024 03:00Clear Sky7°C4 mph, NW3%10000m1006hPa74%
24-Feb-2024 06:00Clear Sky6°C7 mph, NW3%10000m1007hPa80%
24-Feb-2024 09:00Scattered Clouds4°C7 mph, NW31%10000m1007hPa86%
24-Feb-2024 12:00Scattered Clouds4°C7 mph, W48%10000m1009hPa88%
24-Feb-2024 15:00Scattered Clouds10°C11 mph, NW31%10000m1011hPa56%
24-Feb-2024 18:00Scattered Clouds10°C11 mph, NW48%10000m1011hPa46%
24-Feb-2024 21:00Overcast Clouds10°C9 mph, NW100%10000m1012hPa51%
25-Feb-2024 00:00Light Rain5°C7 mph, E95%10000m1016hPa85%
25-Feb-2024 03:00Broken Clouds3°C4 mph, N72%10000m1020hPa95%
25-Feb-2024 06:00Broken Clouds4°C4 mph, N77%10000m1021hPa88%
25-Feb-2024 09:00Broken Clouds1°C2 mph, E78%10000m1022hPa93%
25-Feb-2024 12:00Scattered Clouds0°C2 mph, S46%10000m1024hPa90%
25-Feb-2024 15:00Clear Sky7°C7 mph, S8%10000m1024hPa67%
25-Feb-2024 18:00Clear Sky11°C9 mph, SW10%10000m1021hPa48%
25-Feb-2024 21:00Clear Sky12°C11 mph, SW6%10000m1020hPa49%
26-Feb-2024 00:00Clear Sky7°C7 mph, SW6%10000m1021hPa74%